Weather observations for the past three days for
Willmar Municipal Airport - John L. Rice Field
Metric (Imperial)
Date Time (cdt) Wind (kph) Vis. (km) Weather Sky Cond. Temperature (ºC) Relative Humidity Wind Chill (°C) Heat Index (°C) Pressure Precipitation (cm)
Air Dwpt 6 hour altimeter (cm) sea level (mb) 1 hr 3 hr 6 hr
Max. Min.
10 01:55 NW 7 16.09 Overcast BKN070 OVC090 8 -2 50% 7 76.25 0.0
10 01:35 W 6 16.09 Overcast FEW060 SCT075 OVC090 7 -2 53% 76.25 0.0
10 01:15 Calm 16.09 Overcast SCT075 OVC085 7 -2 53% 76.23 0.0
10 00:55 SW 7 16.09 Overcast FEW075 OVC085 7 -1 57% 6 76.23 0.0
10 00:35 W 7 16.09 Overcast SCT075 OVC085 7 -2 53% 6 76.2 0.0
10 00:15 W 7 16.09 Overcast OVC080 8 -2 50% 7 76.2 0.0
09 23:55 Calm 16.09 Overcast OVC075 7 -2 53% 76.23 0.0
09 23:35 NW 7 16.09 Overcast BKN075 OVC080 8 -3 46% 7 76.2 0.0
09 23:15 Calm 16.09 Overcast OVC080 8 -3 46% 76.2 0.0
09 22:55 Calm 16.09 Overcast OVC080 7 -4 46% 76.2 0.0
09 22:35 NW 9 16.09 Partly Cloudy SCT075 SCT085 8 -4 43% 7 76.2 0.0
09 22:15 NW 7 16.09 Fair CLR 9 -4 40% 8 76.2 0.0
09 21:55 NW 6 16.09 Fair CLR 9 -3 43% 76.17 0.0
09 21:35 NW 9 16.09 Fair CLR 9 -4 40% 8 76.15 0.0
09 21:15 NW 11 16.09 Fair CLR 10 -4 37% 9 76.12 0.0
09 20:55 NW 13 G 22 16.09 Fair CLR 11 -4 35% 76.1 0.0
09 20:35 NW 15 16.09 Fair CLR 12 -4 33% 76.07 0.0
09 20:15 NW 20 G 33 16.09 Fair CLR 12 -4 33% 76.05 0.0
09 19:55 N 22 G 37 16.09 Fair CLR 13 -4 31% 76.02 0.0
09 19:35 NW 24 G 35 16.09 Fair CLR 13 -4 31% 76.02 0.0
09 19:15 N 26 G 35 16.09 Fair CLR 14 -4 29% 76 0.0
09 18:55 NW 33 16.09 Fair and Breezy CLR 14 -4 29% 76 0.0
09 18:35 N 26 G 37 16.09 Fair CLR 14 -4 29% 75.97 0.0
09 18:15 NW 31 G 44 16.09 Fair CLR 14 -4 29% 75.95 0.0
09 17:55 NW 31 16.09 Fair CLR 14 -4 29% 75.95 0.0
09 17:35 NW 35 16.09 Fair and Breezy CLR 15 -3 29% 75.92 0.0
09 17:15 NW 35 G 50 16.09 Fair and Breezy CLR 15 -4 27% 75.92 0.0
09 16:55 NW 43 16.09 Fair and Windy CLR 15 -3 29% 75.92 0.0
09 16:35 NW 28 G 43 16.09 Fair CLR 15 -3 29% 75.92 0.0
09 16:15 N 28 G 39 16.09 Fair CLR 15 -5 25% 75.9 0.0
09 15:55 NW 31 G 44 16.09 Fair CLR 15 -4 27% 75.9 0.0
09 15:35 NW 35 16.09 Fair and Breezy CLR 15 -3 29% 75.9 0.0
09 15:15 N 28 G 43 16.09 Fair CLR 15 -3 29% 75.9 0.0
09 14:55 N 30 G 43 16.09 Fair CLR 14 -3 31% 75.87 0.0
09 14:35 N 30 G 46 16.09 Fair CLR 15 -3 29% 75.87 0.0
09 14:15 NW 26 G 43 16.09 Fair CLR 14 -3 31% 75.87 0.0
09 13:55 N 28 G 39 16.09 Fair CLR 14 -3 31% 75.84 0.0
09 13:35 NW 30 G 46 16.09 Fair CLR 14 -4 29% 75.84 0.0
09 13:15 NW 35 G 48 16.09 Fair and Breezy CLR 14 -3 31% 75.82 0.0
09 12:55 NW 26 G 39 16.09 Fair CLR 14 -3 31% 75.79 0.0
09 12:35 NW 30 G 46 16.09 Fair CLR 14 -4 29% 75.79 0.0
09 12:15 N 24 G 44 16.09 Fair CLR 13 -3 33% 75.79 0.0
09 11:55 NW 31 G 57 16.09 A Few Clouds FEW060 14 -2 33% 75.79 0.0
09 11:35 NW 39 G 52 16.09 Fair and Breezy CLR 13 -2 36% 75.77 0.0
09 11:15 N 30 G 43 16.09 Fair CLR 13 -2 36% 75.77 0.0
09 10:55 N 24 G 39 16.09 Fair CLR 13 -2 36% 75.74 0.0
09 10:35 NW 28 G 37 16.09 Fair CLR 13 -1 38% 75.72 0.0
09 10:15 N 28 G 37 16.09 Fair CLR 12 -1 41% 75.69 0.0
09 09:55 N 20 G 33 16.09 Fair CLR 12 0 44% 75.69 0.0
09 09:35 NW 30 16.09 Fair CLR 12 0 44% 75.67 0.0
09 09:15 NW 28 G 41 16.09 Fair CLR 11 2 54% 75.64 0.0
09 08:55 N 24 G 37 16.09 Fair CLR 11 2 54% 75.62 0.0
09 08:35 N 20 G 37 16.09 Fair CLR 10 3 62% 8 75.62 0.0
09 08:15 N 22 G 37 16.09 Fair CLR 10 5 71% 7 75.59 0.0
09 07:55 N 17 G 31 16.09 A Few Clouds FEW015 9 6 82% 7 75.57 0.0
09 07:35 NW 20 G 30 16.09 A Few Clouds FEW014 9 7 87% 6 75.54 0.0
09 07:15 NW 19 16.09 Fair CLR 8 7 93% 5 75.51 0.0
09 06:55 NW 20 16.09 A Few Clouds FEW015 8 7 93% 5 75.49 0.0
09 06:35 NW 24 16.09 Fair CLR 8 7 93% 5 75.44 0.0
09 06:15 NW 24 16.09 A Few Clouds FEW015 FEW055 8 7 93% 5 75.41 0.0
09 05:55 NW 26 G 37 16.09 Mostly Cloudy FEW015 BKN055 9 8 94% 6 75.39 0.0
09 05:35 NW 26 G 35 16.09 Overcast OVC055 10 8 88% 7 75.36 0.0
09 05:15 NW 22 16.09 Overcast OVC050 10 8 88% 7 75.34 0.0
09 04:55 W 13 16.09 Mostly Cloudy SCT049 BKN060 BKN075 9 8 94% 7 75.34 0.0
09 04:35 NW 7 16.09 Overcast FEW046 BKN060 OVC070 9 8 94% 8 75.29 0.0
09 04:15 Vrbl 11 G 20 16.09 Mostly Cloudy FEW027 SCT041 BKN065 10 8 88% 9 75.31 0.0
09 03:55 Calm 16.09 Light Rain BKN042 BKN055 OVC065 10 8 88% 75.31 0.0
09 03:35 N 11 16.09 Overcast FEW042 BKN055 OVC075 11 7 77% 75.31 0.0
09 03:15 N 19 G 30 16.09 Overcast SCT055 OVC070 11 7 77% 75.31 0.0
09 02:55 N 22 G 33 16.09 Overcast BKN075 OVC085 12 5 63% 75.23 0.0
09 02:35 N 15 16.09 Overcast OVC090 12 2 51% 75.23 0.0
09 02:15 N 9 16.09 Overcast OVC090 11 2 54% 75.23 0.0
09 01:55 NW 11 16.09 Overcast OVC090 10 0 50% 9 75.23 0.0
09 01:35 NW 19 G 28 16.09 Overcast OVC090 10 0 50% 8 75.26 0.0
09 01:15 NW 11 16.09 Overcast OVC090 10 -1 47% 9 75.23 0.0
09 00:55 W 7 16.09 Mostly Cloudy BKN100 10 -1 47% 9 75.21 0.0
09 00:35 Calm 16.09 Fair CLR 9 -1 50% 75.21 0.0
09 00:15 SW 7 16.09 Fair CLR 8 -1 53% 7 75.21 0.0
08 23:55 S 7 16.09 Fair CLR 8 -1 53% 7 75.21 0.0
08 23:35 SW 7 16.09 Fair CLR 8 -1 53% 7 75.26 0.0
08 23:15 Calm 12.87 Fair CLR 9 -1 50% 75.26 0.0
08 22:55 SW 6 14.48 Fair CLR 10 -1 47% 75.29 0.0
08 22:35 SW 6 11.27 Fair CLR 11 -1 44% 75.31 0.0
08 22:15 W 7 14.48 Fair CLR 12 -2 38% 75.31 0.0
08 21:55 W 7 12.87 Fair CLR 12 -2 38% 75.31 0.0
08 21:35 NW 6 16.09 Fair CLR 13 -2 36% 75.31 0.0
08 21:15 NW 7 16.09 Fair CLR 14 -2 33% 75.29 0.0
08 20:55 NW 11 16.09 Fair CLR 15 -2 31% 75.29 0.0
08 20:35 NW 17 G 26 16.09 Fair CLR 16 -2 29% 75.29 0.0
08 20:15 NW 20 G 37 16.09 Fair CLR 17 -2 27% 75.29 0.0
08 19:55 NW 28 G 37 16.09 Fair CLR 18 -2 26% 75.29 0.0
08 19:35 NW 31 G 44 16.09 Fair CLR 19 -2 24% 75.26 0.0
08 19:15 NW 39 G 52 16.09 Fair and Breezy CLR 19 -1 26% 75.23 0.0
08 18:55 NW 35 G 52 16.09 Fair and Breezy CLR 20 -1 24% 75.23 0.0
08 18:35 NW 48 16.09 Fair and Windy CLR 21 -1 23% 75.21 0.0
08 18:15 NW 39 G 57 14.48 Fair and Breezy CLR 21 -2 21% 75.21 0.0
08 17:55 NW 43 G 57 14.48 Fair and Windy CLR 21 -2 21% 75.21 0.0
08 17:35 NW 46 G 57 16.09 Fair and Windy CLR 21 -2 21% 75.21 0.0
08 17:15 NW 35 G 52 16.09 A Few Clouds and Breezy FEW100 22 -1 22% 75.18 0.0
08 16:55 NW 39 G 50 16.09 Partly Cloudy and Breezy SCT100 22 0 23% 75.16 0.0
08 16:35 W 31 G 52 16.09 A Few Clouds FEW095 22 0 23% 75.18 0.0
08 16:15 NW 35 G 50 16.09 Mostly Cloudy and Breezy BKN095 22 -1 22% 75.18 0.0
08 15:55 NW 37 G 52 16.09 Partly Cloudy and Breezy SCT095 22 0 23% 75.18 0.0
08 15:35 NW 39 G 54 16.09 Partly Cloudy and Breezy SCT095 22 0 23% 75.21 0.0
08 15:15 NW 46 G 56 16.09 Mostly Cloudy and Windy BKN100 22 0 23% 75.21 0.0
08 14:55 W 30 G 41 16.09 Mostly Cloudy BKN095 22 1 25% 75.23 0.0
08 14:35 W 35 G 50 16.09 Mostly Cloudy and Breezy BKN100 21 0 25% 75.23 0.0
08 14:15 W 30 G 48 14.48 Mostly Cloudy BKN100 22 0 23% 75.26 0.0
08 13:55 W 20 G 35 16.09 Partly Cloudy SCT110 21 0 25% 75.29 0.0
08 13:35 W 26 G 39 16.09 Partly Cloudy SCT110 20 -1 24% 75.31 0.0
08 13:15 W 22 G 39 16.09 Partly Cloudy SCT110 21 -1 23% 75.34 0.0
08 12:55 W 26 16.09 Mostly Cloudy BKN100 BKN120 20 -1 24% 75.36 0.0
08 12:35 W 26 G 35 16.09 Mostly Cloudy BKN100 19 -3 22% 75.39 0.0
08 12:15 W 20 16.09 A Few Clouds FEW100 19 -3 22% 75.41 0.0
08 11:55 W 22 G 31 16.09 Partly Cloudy SCT110 19 -2 24% 75.41 0.0
08 11:35 W 17 G 33 16.09 A Few Clouds FEW110 19 -3 22% 75.44 0.0
08 11:15 W 20 16.09 Partly Cloudy SCT110 18 -3 24% 75.46 0.0
08 10:55 W 17 16.09 Fair CLR 18 -2 26% 75.46 0.0
08 10:35 W 19 16.09 Fair CLR 18 -2 26% 75.49 0.0
08 10:15 W 20 16.09 Fair CLR 17 -2 27% 75.51 0.0
08 09:55 W 20 16.09 Fair CLR 16 -2 29% 75.51 0.0
08 09:35 W 19 G 28 16.09 Fair CLR 15 -2 31% 75.54 0.0
08 09:15 W 11 16.09 A Few Clouds FEW090 13 -2 36% 75.54 0.0
08 08:55 W 17 14.48 Partly Cloudy SCT090 12 -2 38% 75.57 0.0
08 08:35 W 11 16.09 Partly Cloudy SCT095 SCT120 10 -1 47% 9 75.59 0.0
08 08:15 W 11 16.09 Mostly Cloudy SCT090 BKN120 9 -2 46% 8 75.59 0.0
08 07:55 W 9 16.09 Overcast OVC095 7 -1 57% 5 75.59 0.0
08 07:35 NW 9 14.48 Overcast OVC100 7 -2 53% 5 75.59 0.0
08 07:15 W 7 16.09 Overcast OVC100 6 -3 53% 5 75.59 0.0
08 06:55 SW 7 16.09 Overcast OVC100 5 -3 57% 4 75.57 0.0
08 06:35 Calm 16.09 Overcast OVC100 5 -4 53% 75.57 0.0
08 06:15 SW 6 16.09 Partly Cloudy SCT100 5 -4 53% 75.57 0.0
08 05:55 SW 7 16.09 Fair CLR 4 -4 56% 2 75.57 0.0
08 05:35 SW 7 16.09 Fair CLR 5 -5 49% 4 75.57 0.0
08 05:15 SW 7 16.09 Fair CLR 5 -4 53% 4 75.57 0.0
08 04:55 SW 7 16.09 Fair CLR 5 -4 53% 4 75.57 0.0
08 04:35 SW 9 16.09 Fair CLR 5 -4 53% 3 75.59 0.0
08 04:15 SW 7 16.09 Fair CLR 5 -4 53% 4 75.59 0.0
08 03:55 SW 9 16.09 Fair CLR 6 -4 49% 4 75.59 0.0
08 03:35 SW 7 16.09 Fair CLR 6 -4 49% 5 75.59 0.0
08 03:15 SW 11 16.09 Fair CLR 6 -4 49% 4 75.59 0.0
08 02:55 SW 11 16.09 Fair CLR 6 -4 49% 4 75.59 0.0
08 02:35 SW 9 16.09 Fair CLR 6 -4 49% 4 75.62 0.0
08 02:15 Calm 16.09 Fair CLR 5 -5 49% 75.62 0.0
08 01:55 Calm 16.09 Fair CLR 5 -5 49% 75.62 0.0
08 01:35 Calm 16.09 Fair CLR 5 -4 53% 75.62 0.0
08 01:15 Calm 16.09 Fair CLR 5 -4 53% 75.64 0.0
08 00:55 Calm 16.09 Fair CLR 5 -5 49% 75.64 0.0
08 00:35 Calm 16.09 Fair CLR 5 -5 49% 75.64 0.0
08 00:15 Calm 16.09 Fair CLR 4 -3 61% 75.64 0.0
07 23:55 S 6 16.09 Fair CLR 5 -4 53% 75.67 0.0
07 23:35 S 6 16.09 Fair CLR 7 -4 46% 75.67 0.0
07 23:15 Calm 16.09 Fair CLR 7 -4 46% 75.67 0.0
07 22:55 Calm 16.09 Fair CLR 8 -4 43% 75.67 0.0
07 22:35 SW 7 16.09 Fair CLR 8 -4 43% 7 75.69 0.0
07 22:15 SW 9 16.09 Fair CLR 9 -4 40% 8 75.69 0.0
07 21:55 SW 13 16.09 Fair CLR 9 -5 37% 7 75.69 0.0
07 21:35 SW 11 16.09 Fair CLR 9 -4 40% 8 75.69 0.0
07 21:15 SW 9 14.48 Fair CLR 10 -4 37% 9 75.69 0.0
07 20:55 W 7 16.09 Fair CLR 11 -4 35% 75.69 0.0
07 20:35 NW 9 16.09 Fair CLR 12 -4 33% 75.67 0.0
07 20:15 W 13 16.09 Fair CLR 13 -4 31% 75.67 0.0
07 19:55 NW 13 G 26 16.09 Fair CLR 14 -4 29% 75.67 0.0
07 19:35 W 17 16.09 Fair CLR 15 -4 27% 75.67 0.0
07 19:15 W 20 16.09 Fair CLR 15 -5 25% 75.67 0.0
07 18:55 NW 19 16.09 Fair CLR 15 -5 25% 75.67 0.0
07 18:35 NW 24 16.09 Fair CLR 15 -6 23% 75.67 0.0
07 18:15 NW 30 16.09 Fair CLR 16 -5 23% 75.67 0.0
07 17:55 NW 20 G 30 16.09 Fair CLR 16 -5 23% 75.67 0.0
07 17:35 W 22 16.09 Fair CLR 16 -4 25% 75.67 0.0
07 17:15 NW 30 16.09 A Few Clouds FEW085 16 -4 25% 75.69 0.0
07 16:55 W 17 G 37 16.09 A Few Clouds FEW085 16 -4 25% 75.69 0.0
07 16:35 NW 19 G 33 16.09 Fair CLR 16 -5 23% 75.72 0.0
07 16:15 W 26 G 39 16.09 Fair CLR 15 -5 25% 75.72 0.0
07 15:55 NW 26 G 37 16.09 Fair CLR 15 -5 25% 75.72 0.0
07 15:35 NW 19 G 41 16.09 A Few Clouds FEW080 15 -5 25% 75.74 0.0
07 15:15 W 24 G 35 16.09 Partly Cloudy SCT080 15 -4 27% 75.77 0.0
07 14:55 W 22 16.09 A Few Clouds FEW080 14 -5 27% 75.77 0.0
07 14:35 NW 15 G 28 16.09 Fair CLR 14 -5 27% 75.79 0.0
07 14:15 W 17 16.09 Fair CLR 13 -6 26% 75.79 0.0
07 13:55 W 22 G 33 16.09 A Few Clouds FEW080 13 -5 28% 75.82 0.0
07 13:35 NW 22 16.09 Fair CLR 13 -6 26% 75.82 0.0
07 13:15 Vrbl 11 G 28 16.09 Fair CLR 12 -6 28% 75.84 0.0
07 12:55 NW 13 G 26 16.09 Fair CLR 13 -6 26% 75.87 0.0
07 12:35 NW 15 G 24 16.09 Fair CLR 12 -6 28% 75.87 0.0
07 12:15 SW 15 G 26 16.09 Fair CLR 12 -6 28% 75.9 0.0
07 11:55 NW 17 16.09 Fair CLR 11 -6 30% 75.9 0.0
07 11:35 Vrbl 7 16.09 Fair CLR 11 -7 28% 75.92 0.0
07 11:15 W 9 16.09 Fair CLR 11 -7 28% 75.92 0.0
07 10:55 Calm 16.09 Fair CLR 10 -8 28% 75.95 0.0
07 10:35 Calm 16.09 Fair CLR 10 -7 30% 75.95 0.0
07 10:15 S 9 16.09 Fair CLR 10 -7 30% 9 75.95 0.0
07 09:55 Calm 16.09 Fair CLR 9 -9 27% 75.95 0.0
07 09:35 SW 7 16.09 Fair CLR 9 -6 34% 8 75.95 0.0
07 09:15 S 7 16.09 Fair CLR 8 -4 43% 7 75.95 0.0
07 08:55 Vrbl 7 16.09 Fair CLR 7 -4 46% 6 75.95 0.0
07 08:35 S 9 16.09 Fair CLR 7 -3 49% 5 75.95 0.0
07 08:15 S 6 16.09 Partly Cloudy FEW060 SCT070 6 -2 57% 75.95 0.0
07 07:55 Calm 16.09 Overcast SCT060 OVC070 4 -2 65% 75.95 0.0
07 07:35 Calm 16.09 Overcast SCT065 OVC075 2 -2 75% 75.95 0.0
07 07:15 E 6 14.48 Mostly Cloudy FEW065 BKN080 0 -3 80% 75.95 0.0
07 06:55 E 6 16.09 Mostly Cloudy FEW070 BKN080 BKN090 -1 -4 80% 75.95 0.0
07 06:35 E 6 16.09 Overcast FEW065 BKN075 OVC085 -1 -4 80% 75.95 0.0
07 06:15 E 7 16.09 Overcast FEW065 OVC075 -2 -4 86% -4 75.95 0.0
07 05:55 SE 6 16.09 Overcast OVC075 -2 -4 86% 75.95 0.0
07 05:35 SE 6 16.09 Mostly Cloudy BKN075 -3 -4 93% 75.95 0.0
07 05:15 Calm 16.09 Mostly Cloudy BKN070 BKN085 -3 -4 93% 75.97 0.0
07 04:55 S 6 16.09 Overcast OVC070 -3 -4 93% 75.97 0.0
07 04:35 S 6 16.09 Overcast OVC070 -3 -4 93% 75.97 0.0
07 04:15 Calm 16.09 Mostly Cloudy BKN075 -3 -4 93% 75.97 0.0
07 03:55 Calm 16.09 A Few Clouds FEW075 -3 -4 93% 75.97 0.0
07 03:35 Calm 16.09 A Few Clouds FEW075 -3 -4 93% 76 0.0
07 03:15 Calm 16.09 A Few Clouds FEW075 -3 -4 93% 76 0.0
07 02:55 Calm 16.09 Partly Cloudy SCT075 -2 -4 86% 76 0.0
07 02:35 Calm 16.09 Fair CLR -2 -4 86% 76 0.0
07 02:15 Calm 16.09 Fair CLR -2 -4 86% 76.02 0.0
Date Time (cdt) Wind (kph) Vis. (km) Weather Sky Cond. Air Dwpt Max. Min. Relative Humidity Wind Chill (°C) Heat Index (°C) altimeter (cm) sea level (mb) 1 hr 3 hr 6 hr
6 hour
Temperature (ºC) Pressure Precipitation (cm)